sensor_id;sensor_type;location;lat;lon;timestamp;P1;durP1;ratioP1;P2;durP2;ratioP2
62925;SDS011;55732;52.248;-0.844;2022-09-28T00:02:03;7.40;;;2.30;;
62925;SDS011;55732;52.248;-0.844;2022-09-28T00:04:29;6.80;;;2.10;;
62925;SDS011;55732;52.248;-0.844;2022-09-28T00:06:54;8.90;;;2.70;;
62925;SDS011;55732;52.248;-0.844;2022-09-28T00:09:20;9.90;;;2.70;;
62925;SDS011;55732;52.248;-0.844;2022-09-28T00:11:45;6.20;;;2.10;;
62925;SDS011;55732;52.248;-0.844;2022-09-28T00:14:11;10.10;;;2.60;;
62925;SDS011;55732;52.248;-0.844;2022-09-28T00:16:37;7.60;;;2.40;;
62925;SDS011;55732;52.248;-0.844;2022-09-28T00:19:05;6.20;;;2.30;;
62925;SDS011;55732;52.248;-0.844;2022-09-28T00:21:32;10.40;;;2.40;;
62925;SDS011;55732;52.248;-0.844;2022-09-28T00:24:00;6.60;;;2.20;;
62925;SDS011;55732;52.248;-0.844;2022-09-28T00:29:12;6.90;;;2.40;;
62925;SDS011;55732;52.248;-0.844;2022-09-28T00:31:43;5.20;;;2.10;;
62925;SDS011;55732;52.248;-0.844;2022-09-28T00:34:10;7.10;;;2.50;;
62925;SDS011;55732;52.248;-0.844;2022-09-28T00:36:36;9.30;;;2.20;;
62925;SDS011;55732;52.248;-0.844;2022-09-28T00:39:03;12.10;;;2.70;;
62925;SDS011;55732;52.248;-0.844;2022-09-28T00:41:30;5.80;;;2.50;;
62925;SDS011;55732;52.248;-0.844;2022-09-28T00:49:38;4.90;;;2.40;;
62925;SDS011;55732;52.248;-0.844;2022-09-28T00:52:13;7.40;;;2.90;;
62925;SDS011;55732;52.248;-0.844;2022-09-28T00:54:42;9.50;;;2.20;;
62925;SDS011;55732;52.248;-0.844;2022-09-28T00:57:11;10.10;;;2.30;;
62925;SDS011;55732;52.248;-0.844;2022-09-28T00:59:38;8.30;;;2.70;;
62925;SDS011;55732;52.248;-0.844;2022-09-28T01:02:05;6.00;;;2.50;;
62925;SDS011;55732;52.248;-0.844;2022-09-28T01:04:31;8.30;;;2.70;;
62925;SDS011;55732;52.248;-0.844;2022-09-28T01:06:57;6.80;;;2.00;;
62925;SDS011;55732;52.248;-0.844;2022-09-28T01:09:24;7.20;;;2.50;;
62925;SDS011;55732;52.248;-0.844;2022-09-28T01:11:51;8.70;;;2.50;;
62925;SDS011;55732;52.248;-0.844;2022-09-28T01:14:16;9.60;;;2.50;;
62925;SDS011;55732;52.248;-0.844;2022-09-28T01:30:08;7.60;;;2.70;;
62925;SDS011;55732;52.248;-0.844;2022-09-28T01:32:55;6.60;;;2.60;;
62925;SDS011;55732;52.248;-0.844;2022-09-28T01:37:55;9.00;;;2.30;;
62925;SDS011;55732;52.248;-0.844;2022-09-28T01:40:26;7.90;;;2.40;;
62925;SDS011;55732;52.248;-0.844;2022-09-28T01:42:58;6.90;;;2.60;;
62925;SDS011;55732;52.248;-0.844;2022-09-28T01:45:30;11.40;;;2.50;;
62925;SDS011;55732;52.248;-0.844;2022-09-28T01:48:00;9.70;;;2.40;;
62925;SDS011;55732;52.248;-0.844;2022-09-28T01:50:30;6.80;;;2.10;;
62925;SDS011;55732;52.248;-0.844;2022-09-28T01:53:18;9.10;;;3.10;;
62925;SDS011;55732;52.248;-0.844;2022-09-28T01:55:51;5.30;;;2.20;;
62925;SDS011;55732;52.248;-0.844;2022-09-28T01:58:23;11.80;;;2.40;;
62925;SDS011;55732;52.248;-0.844;2022-09-28T02:01:03;9.00;;;2.10;;
62925;SDS011;55732;52.248;-0.844;2022-09-28T02:03:42;8.40;;;2.60;;
62925;SDS011;55732;52.248;-0.844;2022-09-28T02:06:51;11.30;;;2.40;;
62925;SDS011;55732;52.248;-0.844;2022-09-28T02:09:36;9.00;;;2.50;;
62925;SDS011;55732;52.248;-0.844;2022-09-28T02:12:10;10.60;;;2.80;;
62925;SDS011;55732;52.248;-0.844;2022-09-28T02:14:40;8.80;;;2.70;;
62925;SDS011;55732;52.248;-0.844;2022-09-28T02:17:09;9.60;;;3.00;;
62925;SDS011;55732;52.248;-0.844;2022-09-28T02:19:35;9.50;;;2.80;;
62925;SDS011;55732;52.248;-0.844;2022-09-28T02:24:51;8.60;;;2.40;;
62925;SDS011;55732;52.248;-0.844;2022-09-28T02:27:28;10.40;;;2.90;;
62925;SDS011;55732;52.248;-0.844;2022-09-28T02:30:04;5.00;;;2.40;;
62925;SDS011;55732;52.248;-0.844;2022-09-28T02:32:30;8.00;;;3.10;;
62925;SDS011;55732;52.248;-0.844;2022-09-28T02:34:57;11.20;;;2.80;;
62925;SDS011;55732;52.248;-0.844;2022-09-28T02:37:23;8.70;;;2.30;;
62925;SDS011;55732;52.248;-0.844;2022-09-28T02:39:50;10.40;;;2.50;;
62925;SDS011;55732;52.248;-0.844;2022-09-28T02:42:20;11.90;;;3.00;;
62925;SDS011;55732;52.248;-0.844;2022-09-28T02:45:05;7.00;;;2.40;;
62925;SDS011;55732;52.248;-0.844;2022-09-28T02:47:50;8.40;;;2.60;;
62925;SDS011;55732;52.248;-0.844;2022-09-28T02:53:16;8.50;;;2.80;;
62925;SDS011;55732;52.248;-0.844;2022-09-28T02:56:17;12.90;;;3.30;;
62925;SDS011;55732;52.248;-0.844;2022-09-28T03:01:28;5.30;;;2.90;;
62925;SDS011;55732;52.248;-0.844;2022-09-28T03:04:00;11.00;;;3.20;;
62925;SDS011;55732;52.248;-0.844;2022-09-28T03:07:23;8.90;;;3.10;;
62925;SDS011;55732;52.248;-0.844;2022-09-28T03:10:04;7.30;;;2.70;;
62925;SDS011;55732;52.248;-0.844;2022-09-28T03:12:50;9.10;;;2.80;;
62925;SDS011;55732;52.248;-0.844;2022-09-28T03:15:36;7.60;;;2.80;;
62925;SDS011;55732;52.248;-0.844;2022-09-28T03:18:01;6.90;;;2.90;;
62925;SDS011;55732;52.248;-0.844;2022-09-28T03:20:28;10.50;;;3.00;;
62925;SDS011;55732;52.248;-0.844;2022-09-28T03:22:54;6.20;;;2.80;;
62925;SDS011;55732;52.248;-0.844;2022-09-28T03:25:20;8.50;;;3.00;;
62925;SDS011;55732;52.248;-0.844;2022-09-28T03:27:45;8.50;;;3.30;;
62925;SDS011;55732;52.248;-0.844;2022-09-28T03:30:12;7.90;;;2.60;;
62925;SDS011;55732;52.248;-0.844;2022-09-28T03:32:38;7.70;;;3.40;;
62925;SDS011;55732;52.248;-0.844;2022-09-28T03:35:04;8.20;;;2.70;;
62925;SDS011;55732;52.248;-0.844;2022-09-28T03:37:31;4.70;;;2.60;;
62925;SDS011;55732;52.248;-0.844;2022-09-28T03:39:56;5.60;;;2.60;;
62925;SDS011;55732;52.248;-0.844;2022-09-28T03:42:22;6.80;;;2.70;;
62925;SDS011;55732;52.248;-0.844;2022-09-28T03:44:47;6.70;;;3.10;;
62925;SDS011;55732;52.248;-0.844;2022-09-28T03:47:12;5.30;;;2.90;;
62925;SDS011;55732;52.248;-0.844;2022-09-28T03:49:39;8.00;;;2.90;;
62925;SDS011;55732;52.248;-0.844;2022-09-28T03:52:05;6.10;;;3.20;;
62925;SDS011;55732;52.248;-0.844;2022-09-28T03:54:30;6.10;;;2.70;;
62925;SDS011;55732;52.248;-0.844;2022-09-28T03:56:56;6.20;;;2.90;;
62925;SDS011;55732;52.248;-0.844;2022-09-28T03:59:22;8.00;;;2.90;;
62925;SDS011;55732;52.248;-0.844;2022-09-28T04:01:48;7.10;;;2.90;;
62925;SDS011;55732;52.248;-0.844;2022-09-28T04:04:14;7.60;;;3.00;;
62925;SDS011;55732;52.248;-0.844;2022-09-28T04:06:40;9.00;;;2.90;;
62925;SDS011;55732;52.248;-0.844;2022-09-28T04:09:06;11.40;;;3.10;;
62925;SDS011;55732;52.248;-0.844;2022-09-28T04:11:31;4.90;;;2.90;;
62925;SDS011;55732;52.248;-0.844;2022-09-28T04:13:57;8.70;;;2.90;;
62925;SDS011;55732;52.248;-0.844;2022-09-28T04:16:22;14.30;;;4.00;;
62925;SDS011;55732;52.248;-0.844;2022-09-28T04:18:48;8.70;;;3.20;;
62925;SDS011;55732;52.248;-0.844;2022-09-28T04:21:14;8.80;;;3.20;;
62925;SDS011;55732;52.248;-0.844;2022-09-28T04:26:11;7.90;;;2.90;;
62925;SDS011;55732;52.248;-0.844;2022-09-28T04:28:40;4.50;;;2.70;;
62925;SDS011;55732;52.248;-0.844;2022-09-28T04:31:26;9.90;;;2.90;;
62925;SDS011;55732;52.248;-0.844;2022-09-28T04:33:51;4.50;;;2.80;;
62925;SDS011;55732;52.248;-0.844;2022-09-28T04:36:18;10.00;;;3.40;;
62925;SDS011;55732;52.248;-0.844;2022-09-28T04:38:43;7.50;;;3.30;;
62925;SDS011;55732;52.248;-0.844;2022-09-28T04:41:09;10.20;;;3.80;;
62925;SDS011;55732;52.248;-0.844;2022-09-28T04:43:36;7.50;;;3.50;;
62925;SDS011;55732;52.248;-0.844;2022-09-28T04:46:02;10.00;;;3.80;;
62925;SDS011;55732;52.248;-0.844;2022-09-28T04:48:31;7.60;;;3.90;;
62925;SDS011;55732;52.248;-0.844;2022-09-28T04:50:57;13.30;;;4.20;;
62925;SDS011;55732;52.248;-0.844;2022-09-28T04:53:24;6.10;;;4.20;;
62925;SDS011;55732;52.248;-0.844;2022-09-28T04:55:57;9.80;;;4.30;;
62925;SDS011;55732;52.248;-0.844;2022-09-28T04:58:25;8.60;;;4.30;;
62925;SDS011;55732;52.248;-0.844;2022-09-28T05:00:51;7.70;;;4.30;;
62925;SDS011;55732;52.248;-0.844;2022-09-28T05:03:18;10.50;;;5.20;;
62925;SDS011;55732;52.248;-0.844;2022-09-28T05:05:45;8.60;;;5.00;;
62925;SDS011;55732;52.248;-0.844;2022-09-28T05:08:11;8.20;;;4.80;;
62925;SDS011;55732;52.248;-0.844;2022-09-28T05:10:37;10.90;;;4.70;;
62925;SDS011;55732;52.248;-0.844;2022-09-28T05:13:06;11.90;;;5.20;;
62925;SDS011;55732;52.248;-0.844;2022-09-28T05:15:33;7.90;;;5.20;;
62925;SDS011;55732;52.248;-0.844;2022-09-28T05:17:59;9.60;;;5.20;;
62925;SDS011;55732;52.248;-0.844;2022-09-28T05:20:24;8.70;;;5.20;;
62925;SDS011;55732;52.248;-0.844;2022-09-28T05:22:50;9.40;;;5.50;;
62925;SDS011;55732;52.248;-0.844;2022-09-28T05:25:15;9.10;;;5.50;;
62925;SDS011;55732;52.248;-0.844;2022-09-28T05:27:41;6.00;;;4.30;;
62925;SDS011;55732;52.248;-0.844;2022-09-28T05:30:06;9.50;;;5.50;;
62925;SDS011;55732;52.248;-0.844;2022-09-28T05:32:38;11.50;;;6.30;;
62925;SDS011;55732;52.248;-0.844;2022-09-28T05:35:08;8.10;;;4.40;;
62925;SDS011;55732;52.248;-0.844;2022-09-28T05:37:37;9.20;;;5.20;;
62925;SDS011;55732;52.248;-0.844;2022-09-28T05:40:03;9.20;;;5.30;;
62925;SDS011;55732;52.248;-0.844;2022-09-28T05:42:30;9.30;;;5.70;;
62925;SDS011;55732;52.248;-0.844;2022-09-28T05:44:55;8.20;;;5.50;;
62925;SDS011;55732;52.248;-0.844;2022-09-28T05:47:24;9.60;;;5.30;;
62925;SDS011;55732;52.248;-0.844;2022-09-28T05:49:51;8.30;;;5.70;;
62925;SDS011;55732;52.248;-0.844;2022-09-28T05:52:17;11.90;;;5.10;;
62925;SDS011;55732;52.248;-0.844;2022-09-28T05:54:43;8.00;;;5.30;;
62925;SDS011;55732;52.248;-0.844;2022-09-28T05:57:08;8.80;;;4.90;;
62925;SDS011;55732;52.248;-0.844;2022-09-28T05:59:34;9.50;;;5.70;;
62925;SDS011;55732;52.248;-0.844;2022-09-28T06:02:00;5.80;;;4.60;;
62925;SDS011;55732;52.248;-0.844;2022-09-28T06:04:27;6.60;;;4.60;;
62925;SDS011;55732;52.248;-0.844;2022-09-28T06:06:53;10.10;;;5.60;;
62925;SDS011;55732;52.248;-0.844;2022-09-28T06:09:18;9.00;;;5.90;;
62925;SDS011;55732;52.248;-0.844;2022-09-28T06:11:44;6.50;;;4.80;;
62925;SDS011;55732;52.248;-0.844;2022-09-28T06:14:10;7.10;;;5.20;;
62925;SDS011;55732;52.248;-0.844;2022-09-28T06:16:37;7.20;;;5.00;;
62925;SDS011;55732;52.248;-0.844;2022-09-28T06:19:04;7.60;;;5.10;;
62925;SDS011;55732;52.248;-0.844;2022-09-28T06:21:29;9.70;;;5.20;;
62925;SDS011;55732;52.248;-0.844;2022-09-28T06:23:55;10.20;;;5.40;;
62925;SDS011;55732;52.248;-0.844;2022-09-28T06:26:20;9.40;;;5.50;;
62925;SDS011;55732;52.248;-0.844;2022-09-28T06:28:45;5.60;;;4.60;;
62925;SDS011;55732;52.248;-0.844;2022-09-28T06:31:11;8.80;;;5.00;;
62925;SDS011;55732;52.248;-0.844;2022-09-28T06:33:36;7.50;;;4.90;;
62925;SDS011;55732;52.248;-0.844;2022-09-28T06:36:03;8.30;;;5.00;;
62925;SDS011;55732;52.248;-0.844;2022-09-28T06:38:28;8.40;;;5.30;;
62925;SDS011;55732;52.248;-0.844;2022-09-28T06:40:55;7.90;;;5.50;;
62925;SDS011;55732;52.248;-0.844;2022-09-28T06:43:21;8.60;;;5.30;;
62925;SDS011;55732;52.248;-0.844;2022-09-28T06:45:50;7.70;;;5.40;;
62925;SDS011;55732;52.248;-0.844;2022-09-28T06:48:17;9.40;;;6.90;;
62925;SDS011;55732;52.248;-0.844;2022-09-28T06:50:43;10.10;;;5.90;;
62925;SDS011;55732;52.248;-0.844;2022-09-28T06:53:10;8.20;;;5.60;;
62925;SDS011;55732;52.248;-0.844;2022-09-28T06:55:38;8.60;;;5.40;;
62925;SDS011;55732;52.248;-0.844;2022-09-28T06:58:12;9.30;;;4.90;;
62925;SDS011;55732;52.248;-0.844;2022-09-28T07:00:39;8.80;;;5.00;;
62925;SDS011;55732;52.248;-0.844;2022-09-28T07:03:26;7.80;;;5.20;;
62925;SDS011;55732;52.248;-0.844;2022-09-28T07:05:52;9.00;;;5.40;;
62925;SDS011;55732;52.248;-0.844;2022-09-28T07:08:20;9.50;;;5.70;;
62925;SDS011;55732;52.248;-0.844;2022-09-28T07:10:49;9.50;;;5.80;;
62925;SDS011;55732;52.248;-0.844;2022-09-28T07:13:20;11.20;;;6.00;;
62925;SDS011;55732;52.248;-0.844;2022-09-28T07:15:47;9.30;;;6.30;;
62925;SDS011;55732;52.248;-0.844;2022-09-28T07:18:13;7.80;;;5.20;;
62925;SDS011;55732;52.248;-0.844;2022-09-28T07:20:38;11.10;;;6.00;;
62925;SDS011;55732;52.248;-0.844;2022-09-28T07:23:05;7.80;;;5.20;;
62925;SDS011;55732;52.248;-0.844;2022-09-28T07:25:32;8.10;;;5.60;;
62925;SDS011;55732;52.248;-0.844;2022-09-28T07:30:26;9.40;;;5.40;;
62925;SDS011;55732;52.248;-0.844;2022-09-28T07:32:55;10.00;;;5.00;;
62925;SDS011;55732;52.248;-0.844;2022-09-28T07:35:20;12.00;;;5.00;;
62925;SDS011;55732;52.248;-0.844;2022-09-28T07:37:46;9.20;;;4.90;;
62925;SDS011;55732;52.248;-0.844;2022-09-28T07:40:12;7.40;;;4.90;;
62925;SDS011;55732;52.248;-0.844;2022-09-28T07:43:02;7.40;;;4.70;;
62925;SDS011;55732;52.248;-0.844;2022-09-28T07:45:29;9.10;;;4.70;;
62925;SDS011;55732;52.248;-0.844;2022-09-28T07:47:58;7.30;;;4.90;;
62925;SDS011;55732;52.248;-0.844;2022-09-28T07:50:23;5.90;;;4.10;;
62925;SDS011;55732;52.248;-0.844;2022-09-28T07:52:49;5.00;;;3.80;;
62925;SDS011;55732;52.248;-0.844;2022-09-28T07:55:14;6.80;;;3.60;;
62925;SDS011;55732;52.248;-0.844;2022-09-28T07:57:40;5.80;;;3.80;;
62925;SDS011;55732;52.248;-0.844;2022-09-28T08:00:06;5.80;;;3.80;;
62925;SDS011;55732;52.248;-0.844;2022-09-28T08:02:33;6.40;;;3.30;;
62925;SDS011;55732;52.248;-0.844;2022-09-28T08:04:59;5.30;;;3.30;;
62925;SDS011;55732;52.248;-0.844;2022-09-28T08:09:51;5.90;;;2.90;;
62925;SDS011;55732;52.248;-0.844;2022-09-28T08:12:17;7.30;;;3.10;;
62925;SDS011;55732;52.248;-0.844;2022-09-28T08:14:43;4.20;;;3.00;;
62925;SDS011;55732;52.248;-0.844;2022-09-28T08:17:09;5.10;;;3.20;;
62925;SDS011;55732;52.248;-0.844;2022-09-28T08:19:35;4.10;;;2.80;;
62925;SDS011;55732;52.248;-0.844;2022-09-28T08:22:19;5.20;;;3.10;;
62925;SDS011;55732;52.248;-0.844;2022-09-28T08:24:45;3.50;;;3.00;;
62925;SDS011;55732;52.248;-0.844;2022-09-28T08:27:11;4.80;;;3.10;;
62925;SDS011;55732;52.248;-0.844;2022-09-28T08:29:38;5.10;;;3.10;;
62925;SDS011;55732;52.248;-0.844;2022-09-28T08:32:05;4.40;;;3.00;;
62925;SDS011;55732;52.248;-0.844;2022-09-28T08:34:33;5.00;;;3.00;;
62925;SDS011;55732;52.248;-0.844;2022-09-28T08:37:03;3.70;;;2.90;;
62925;SDS011;55732;52.248;-0.844;2022-09-28T08:39:29;4.50;;;2.70;;
62925;SDS011;55732;52.248;-0.844;2022-09-28T08:44:52;3.60;;;2.60;;
62925;SDS011;55732;52.248;-0.844;2022-09-28T08:50:50;5.50;;;2.70;;
62925;SDS011;55732;52.248;-0.844;2022-09-28T08:56:01;4.00;;;2.60;;
62925;SDS011;55732;52.248;-0.844;2022-09-28T08:58:35;3.80;;;2.60;;
62925;SDS011;55732;52.248;-0.844;2022-09-28T09:01:06;2.60;;;2.20;;
62925;SDS011;55732;52.248;-0.844;2022-09-28T09:03:40;5.30;;;2.30;;
62925;SDS011;55732;52.248;-0.844;2022-09-28T09:17:14;3.40;;;2.10;;
62925;SDS011;55732;52.248;-0.844;2022-09-28T09:22:26;3.10;;;2.30;;
62925;SDS011;55732;52.248;-0.844;2022-09-28T09:28:01;4.20;;;2.40;;
62925;SDS011;55732;52.248;-0.844;2022-09-28T09:30:39;4.30;;;2.40;;
62925;SDS011;55732;52.248;-0.844;2022-09-28T09:35:59;3.50;;;2.40;;
62925;SDS011;55732;52.248;-0.844;2022-09-28T09:44:28;3.70;;;2.20;;
62925;SDS011;55732;52.248;-0.844;2022-09-28T09:47:24;3.30;;;1.90;;
62925;SDS011;55732;52.248;-0.844;2022-09-28T09:55:22;4.30;;;1.90;;
62925;SDS011;55732;52.248;-0.844;2022-09-28T10:00:24;5.10;;;1.90;;
62925;SDS011;55732;52.248;-0.844;2022-09-28T10:02:49;5.30;;;1.90;;
62925;SDS011;55732;52.248;-0.844;2022-09-28T10:05:21;2.90;;;1.70;;
62925;SDS011;55732;52.248;-0.844;2022-09-28T10:07:59;2.60;;;1.50;;
62925;SDS011;55732;52.248;-0.844;2022-09-28T10:10:29;2.00;;;1.50;;
62925;SDS011;55732;52.248;-0.844;2022-09-28T10:12:59;2.40;;;1.60;;
62925;SDS011;55732;52.248;-0.844;2022-09-28T10:15:25;3.90;;;1.80;;
62925;SDS011;55732;52.248;-0.844;2022-09-28T10:17:53;2.90;;;1.70;;
62925;SDS011;55732;52.248;-0.844;2022-09-28T10:20:22;3.20;;;1.50;;
62925;SDS011;55732;52.248;-0.844;2022-09-28T10:22:49;2.40;;;1.80;;
62925;SDS011;55732;52.248;-0.844;2022-09-28T10:32:48;2.40;;;1.40;;
62925;SDS011;55732;52.248;-0.844;2022-09-28T10:43:16;3.80;;;1.60;;
62925;SDS011;55732;52.248;-0.844;2022-09-28T10:45:42;3.20;;;1.50;;
62925;SDS011;55732;52.248;-0.844;2022-09-28T10:48:26;3.30;;;1.60;;
62925;SDS011;55732;52.248;-0.844;2022-09-28T10:51:03;2.80;;;1.50;;
62925;SDS011;55732;52.248;-0.844;2022-09-28T10:53:31;2.70;;;1.50;;
62925;SDS011;55732;52.248;-0.844;2022-09-28T10:56:04;2.30;;;1.40;;
62925;SDS011;55732;52.248;-0.844;2022-09-28T10:58:50;5.00;;;1.90;;
62925;SDS011;55732;52.248;-0.844;2022-09-28T11:01:17;4.20;;;1.80;;
62925;SDS011;55732;52.248;-0.844;2022-09-28T11:03:55;2.90;;;1.50;;
62925;SDS011;55732;52.248;-0.844;2022-09-28T11:06:25;4.30;;;1.80;;
62925;SDS011;55732;52.248;-0.844;2022-09-28T11:08:53;3.70;;;1.50;;
62925;SDS011;55732;52.248;-0.844;2022-09-28T11:11:22;2.40;;;1.60;;
62925;SDS011;55732;52.248;-0.844;2022-09-28T11:13:52;1.90;;;1.60;;
62925;SDS011;55732;52.248;-0.844;2022-09-28T11:16:24;2.70;;;1.60;;
62925;SDS011;55732;52.248;-0.844;2022-09-28T11:18:55;3.20;;;1.70;;
62925;SDS011;55732;52.248;-0.844;2022-09-28T11:21:41;3.20;;;1.90;;
62925;SDS011;55732;52.248;-0.844;2022-09-28T11:26:43;2.10;;;1.60;;
62925;SDS011;55732;52.248;-0.844;2022-09-28T11:29:19;2.30;;;1.80;;
62925;SDS011;55732;52.248;-0.844;2022-09-28T11:31:47;3.50;;;1.70;;
62925;SDS011;55732;52.248;-0.844;2022-09-28T11:39:38;1.90;;;1.50;;
62925;SDS011;55732;52.248;-0.844;2022-09-28T11:42:20;1.90;;;1.40;;
62925;SDS011;55732;52.248;-0.844;2022-09-28T11:44:48;4.00;;;1.60;;
62925;SDS011;55732;52.248;-0.844;2022-09-28T11:50:19;3.50;;;1.40;;
62925;SDS011;55732;52.248;-0.844;2022-09-28T11:52:56;1.80;;;1.30;;
62925;SDS011;55732;52.248;-0.844;2022-09-28T11:55:31;1.50;;;1.40;;
62925;SDS011;55732;52.248;-0.844;2022-09-28T11:58:14;3.80;;;1.70;;
62925;SDS011;55732;52.248;-0.844;2022-09-28T12:00:49;3.30;;;1.50;;
62925;SDS011;55732;52.248;-0.844;2022-09-28T12:03:48;2.00;;;1.40;;
62925;SDS011;55732;52.248;-0.844;2022-09-28T12:06:18;3.00;;;1.30;;
62925;SDS011;55732;52.248;-0.844;2022-09-28T12:08:53;3.80;;;1.50;;
62925;SDS011;55732;52.248;-0.844;2022-09-28T12:11:32;4.10;;;1.40;;
62925;SDS011;55732;52.248;-0.844;2022-09-28T12:14:03;5.50;;;1.70;;
62925;SDS011;55732;52.248;-0.844;2022-09-28T12:16:42;1.80;;;1.30;;
62925;SDS011;55732;52.248;-0.844;2022-09-28T12:21:45;3.90;;;1.40;;
62925;SDS011;55732;52.248;-0.844;2022-09-28T12:35:26;3.20;;;1.50;;
62925;SDS011;55732;52.248;-0.844;2022-09-28T12:37:59;1.70;;;1.30;;
62925;SDS011;55732;52.248;-0.844;2022-09-28T12:40:54;3.10;;;1.30;;
62925;SDS011;55732;52.248;-0.844;2022-09-28T12:43:41;1.00;;;0.90;;
62925;SDS011;55732;52.248;-0.844;2022-09-28T12:57:57;1.70;;;1.10;;
62925;SDS011;55732;52.248;-0.844;2022-09-28T13:23:04;2.00;;;1.30;;
62925;SDS011;55732;52.248;-0.844;2022-09-28T13:25:40;1.70;;;1.20;;
62925;SDS011;55732;52.248;-0.844;2022-09-28T13:28:12;2.90;;;1.30;;
62925;SDS011;55732;52.248;-0.844;2022-09-28T13:30:39;2.00;;;1.10;;
62925;SDS011;55732;52.248;-0.844;2022-09-28T13:33:09;3.90;;;1.10;;
62925;SDS011;55732;52.248;-0.844;2022-09-28T13:35:43;1.20;;;1.10;;
62925;SDS011;55732;52.248;-0.844;2022-09-28T13:38:28;1.80;;;1.10;;
62925;SDS011;55732;52.248;-0.844;2022-09-28T13:46:29;1.80;;;1.40;;
62925;SDS011;55732;52.248;-0.844;2022-09-28T13:49:22;2.20;;;1.10;;
62925;SDS011;55732;52.248;-0.844;2022-09-28T13:54:41;3.20;;;1.80;;
62925;SDS011;55732;52.248;-0.844;2022-09-28T13:57:30;1.30;;;1.20;;
62925;SDS011;55732;52.248;-0.844;2022-09-28T14:00:24;0.80;;;0.80;;
62925;SDS011;55732;52.248;-0.844;2022-09-28T14:05:47;1.40;;;0.90;;
62925;SDS011;55732;52.248;-0.844;2022-09-28T14:09:21;1.80;;;1.10;;
62925;SDS011;55732;52.248;-0.844;2022-09-28T14:16:32;3.40;;;1.00;;
62925;SDS011;55732;52.248;-0.844;2022-09-28T14:19:07;1.30;;;1.10;;
62925;SDS011;55732;52.248;-0.844;2022-09-28T14:22:19;1.70;;;1.10;;
62925;SDS011;55732;52.248;-0.844;2022-09-28T14:30:21;3.00;;;1.10;;
62925;SDS011;55732;52.248;-0.844;2022-09-28T14:32:53;1.30;;;1.00;;
62925;SDS011;55732;52.248;-0.844;2022-09-28T14:38:03;1.00;;;0.90;;
62925;SDS011;55732;52.248;-0.844;2022-09-28T14:46:47;0.80;;;0.70;;
62925;SDS011;55732;52.248;-0.844;2022-09-28T14:48:52;1.50;;;1.00;;
62925;SDS011;55732;52.248;-0.844;2022-09-28T14:53:53;1.10;;;0.90;;
62925;SDS011;55732;52.248;-0.844;2022-09-28T14:59:16;1.60;;;1.20;;
62925;SDS011;55732;52.248;-0.844;2022-09-28T15:05:18;2.20;;;1.00;;
62925;SDS011;55732;52.248;-0.844;2022-09-28T15:07:48;0.90;;;0.90;;
62925;SDS011;55732;52.248;-0.844;2022-09-28T15:13:04;1.00;;;0.70;;
62925;SDS011;55732;52.248;-0.844;2022-09-28T15:15:41;0.60;;;0.60;;
62925;SDS011;55732;52.248;-0.844;2022-09-28T15:20:40;0.90;;;0.70;;
62925;SDS011;55732;52.248;-0.844;2022-09-28T15:23:23;2.90;;;1.00;;
62925;SDS011;55732;52.248;-0.844;2022-09-28T15:29:13;3.30;;;1.00;;
62925;SDS011;55732;52.248;-0.844;2022-09-28T15:31:41;1.70;;;1.20;;
62925;SDS011;55732;52.248;-0.844;2022-09-28T15:34:10;2.40;;;0.90;;
62925;SDS011;55732;52.248;-0.844;2022-09-28T15:37:12;2.90;;;1.20;;
62925;SDS011;55732;52.248;-0.844;2022-09-28T15:39:40;1.00;;;0.90;;
62925;SDS011;55732;52.248;-0.844;2022-09-28T15:42:06;1.00;;;0.80;;
62925;SDS011;55732;52.248;-0.844;2022-09-28T15:44:35;1.80;;;1.10;;
62925;SDS011;55732;52.248;-0.844;2022-09-28T15:47:12;1.10;;;0.90;;
62925;SDS011;55732;52.248;-0.844;2022-09-28T15:49:53;1.20;;;1.00;;
62925;SDS011;55732;52.248;-0.844;2022-09-28T15:52:27;1.00;;;1.00;;
62925;SDS011;55732;52.248;-0.844;2022-09-28T15:54:54;1.00;;;0.90;;
62925;SDS011;55732;52.248;-0.844;2022-09-28T15:57:32;2.10;;;1.10;;
62925;SDS011;55732;52.248;-0.844;2022-09-28T16:00:01;1.80;;;1.00;;
62925;SDS011;55732;52.248;-0.844;2022-09-28T16:02:57;1.80;;;1.10;;
62925;SDS011;55732;52.248;-0.844;2022-09-28T16:08:15;1.00;;;0.80;;
62925;SDS011;55732;52.248;-0.844;2022-09-28T16:13:52;2.20;;;1.10;;
62925;SDS011;55732;52.248;-0.844;2022-09-28T16:17:04;2.10;;;1.00;;
62925;SDS011;55732;52.248;-0.844;2022-09-28T16:19:24;0.90;;;0.70;;
62925;SDS011;55732;52.248;-0.844;2022-09-28T16:21:50;1.30;;;0.90;;
62925;SDS011;55732;52.248;-0.844;2022-09-28T16:24:25;0.90;;;0.80;;
62925;SDS011;55732;52.248;-0.844;2022-09-28T16:27:00;2.00;;;1.00;;
62925;SDS011;55732;52.248;-0.844;2022-09-28T16:29:36;2.10;;;0.80;;
62925;SDS011;55732;52.248;-0.844;2022-09-28T16:35:20;1.90;;;1.30;;
62925;SDS011;55732;52.248;-0.844;2022-09-28T16:40:33;3.00;;;1.40;;
62925;SDS011;55732;52.248;-0.844;2022-09-28T16:43:03;2.40;;;1.30;;
62925;SDS011;55732;52.248;-0.844;2022-09-28T16:45:31;1.10;;;0.90;;
62925;SDS011;55732;52.248;-0.844;2022-09-28T16:47:57;2.20;;;1.00;;
62925;SDS011;55732;52.248;-0.844;2022-09-28T16:50:23;1.30;;;1.20;;
62925;SDS011;55732;52.248;-0.844;2022-09-28T16:52:56;2.30;;;1.30;;
62925;SDS011;55732;52.248;-0.844;2022-09-28T16:55:49;2.10;;;1.30;;
62925;SDS011;55732;52.248;-0.844;2022-09-28T16:58:14;1.30;;;1.20;;
62925;SDS011;55732;52.248;-0.844;2022-09-28T17:00:40;3.10;;;1.90;;
62925;SDS011;55732;52.248;-0.844;2022-09-28T17:03:15;1.80;;;1.30;;
62925;SDS011;55732;52.248;-0.844;2022-09-28T17:05:42;1.90;;;1.40;;
62925;SDS011;55732;52.248;-0.844;2022-09-28T17:08:11;3.10;;;1.40;;
62925;SDS011;55732;52.248;-0.844;2022-09-28T17:10:51;2.30;;;1.40;;
62925;SDS011;55732;52.248;-0.844;2022-09-28T17:13:20;1.90;;;1.50;;
62925;SDS011;55732;52.248;-0.844;2022-09-28T17:15:57;2.20;;;1.50;;
62925;SDS011;55732;52.248;-0.844;2022-09-28T17:18:28;1.30;;;1.20;;
62925;SDS011;55732;52.248;-0.844;2022-09-28T17:23:22;2.90;;;1.80;;
62925;SDS011;55732;52.248;-0.844;2022-09-28T17:25:47;2.60;;;1.90;;
62925;SDS011;55732;52.248;-0.844;2022-09-28T17:28:21;4.20;;;2.00;;
62925;SDS011;55732;52.248;-0.844;2022-09-28T17:30:51;3.60;;;1.70;;
62925;SDS011;55732;52.248;-0.844;2022-09-28T17:33:17;1.90;;;1.50;;
62925;SDS011;55732;52.248;-0.844;2022-09-28T17:35:43;1.70;;;1.60;;
62925;SDS011;55732;52.248;-0.844;2022-09-28T17:38:13;4.80;;;1.70;;
62925;SDS011;55732;52.248;-0.844;2022-09-28T17:40:40;3.00;;;2.20;;
62925;SDS011;55732;52.248;-0.844;2022-09-28T17:43:07;4.30;;;2.40;;
62925;SDS011;55732;52.248;-0.844;2022-09-28T17:45:34;4.70;;;2.60;;
62925;SDS011;55732;52.248;-0.844;2022-09-28T17:48:04;4.80;;;2.30;;
62925;SDS011;55732;52.248;-0.844;2022-09-28T17:50:31;4.60;;;2.50;;
62925;SDS011;55732;52.248;-0.844;2022-09-28T17:52:59;4.10;;;2.40;;
62925;SDS011;55732;52.248;-0.844;2022-09-28T17:55:28;3.00;;;2.40;;
62925;SDS011;55732;52.248;-0.844;2022-09-28T17:57:58;3.20;;;2.20;;
62925;SDS011;55732;52.248;-0.844;2022-09-28T18:02:55;4.50;;;2.10;;
62925;SDS011;55732;52.248;-0.844;2022-09-28T18:05:25;3.60;;;2.10;;
62925;SDS011;55732;52.248;-0.844;2022-09-28T18:07:54;7.70;;;2.30;;
62925;SDS011;55732;52.248;-0.844;2022-09-28T18:10:22;5.50;;;2.30;;
62925;SDS011;55732;52.248;-0.844;2022-09-28T18:12:50;5.70;;;2.50;;
62925;SDS011;55732;52.248;-0.844;2022-09-28T18:15:16;4.70;;;2.60;;
62925;SDS011;55732;52.248;-0.844;2022-09-28T18:17:43;4.90;;;2.70;;
62925;SDS011;55732;52.248;-0.844;2022-09-28T18:20:09;5.40;;;3.00;;
62925;SDS011;55732;52.248;-0.844;2022-09-28T18:22:36;5.10;;;2.70;;
62925;SDS011;55732;52.248;-0.844;2022-09-28T18:25:02;6.60;;;2.90;;
62925;SDS011;55732;52.248;-0.844;2022-09-28T18:27:28;5.90;;;3.00;;
62925;SDS011;55732;52.248;-0.844;2022-09-28T18:29:55;4.30;;;2.60;;
62925;SDS011;55732;52.248;-0.844;2022-09-28T18:32:21;6.90;;;3.90;;
62925;SDS011;55732;52.248;-0.844;2022-09-28T18:34:47;4.20;;;2.60;;
62925;SDS011;55732;52.248;-0.844;2022-09-28T18:37:12;4.40;;;2.60;;